メインページ
METAR-TAF:

METAR-TAF

空港 :

ナンディ国際空港

ナンディ, フィジー

緯度: 17-45S, 経度: 177-27E, 海抜: 13m

現時点の気象観測

当レポートは16分前の10:00(UTC)に作成
東/北東の風 3kt
気温 24°C
湿度 89%
気圧 1015 hPa
視程10km以上
高度3000ftの雲はほとんどない

METAR: NFFN 181000Z 07003KT 9999 FEW030 24/22 Q1015 NOSIG

時間: 22:16 (10:16 UTC)

予報

当レポートは5時間13分前の05:03(UTC)に作成
予報は18日の 06時(UTC)から 19日の 06時(UTC)まで有効
東/北東の風 7kt
視程10km以上
高度2800ftの雲はほとんどない
18日の 22時(UTC)から 18日の 24時(UTC)まで徐々に
西の風 10kt
19日の 05時(UTC)から 19日の 06時(UTC)まで徐々に
東/北東の風 5kt

TAF: NFFN 180503Z 1806/1906 06007KT 9999 FEW028 BECMG 1822/1824 26010KT BECMG 1905/1906 06005KT

4,000以上の空港の気象観測と天気予報(METAR報とTAF報)

利用可能な観測所は地図上に黄色い丸と赤い丸で示す。

丸の上にカーソルを重ねると観測所名を参照できる。

次にクリックすると気象観測と天気予報を参照できる。

マップの切り替え:黒色「×」印の緑ボタンをクリックして拡大、「-」印の緑ボタンをクリックして縮小、緑色の三角印をクリックして隣りの地図に切り替え


METAR-TAF: